createdAt,value
2023-01-07T00:04:21.321Z,9.23
2023-01-07T00:09:22.672Z,9.26
2023-01-07T00:14:25.052Z,9.33
2023-01-07T00:19:26.408Z,9.40
2023-01-07T00:24:27.725Z,9.49
2023-01-07T00:29:29.085Z,9.53
2023-01-07T00:34:30.477Z,9.54
2023-01-07T00:39:31.797Z,9.53
2023-01-07T00:44:33.925Z,9.53
2023-01-07T00:49:35.416Z,9.53
2023-01-07T00:54:36.777Z,9.57
2023-01-07T00:59:38.125Z,9.57
2023-01-07T01:04:39.513Z,9.59
2023-01-07T01:09:40.837Z,9.64
2023-01-07T01:14:42.229Z,9.69
2023-01-07T01:19:43.575Z,9.73
2023-01-07T01:24:44.921Z,9.76
2023-01-07T01:29:46.486Z,9.80
2023-01-07T01:34:48.743Z,9.83
2023-01-07T01:39:50.104Z,9.86
2023-01-07T01:44:53.302Z,9.88
2023-01-07T01:50:24.954Z,9.91
2023-01-07T01:55:31.993Z,9.92
2023-01-07T02:00:35.788Z,9.93
2023-01-07T02:05:40.768Z,9.95
2023-01-07T02:10:42.660Z,9.97
2023-01-07T02:15:56.398Z,9.96
2023-01-07T02:21:14.231Z,9.98
2023-01-07T02:26:15.605Z,9.98
2023-01-07T02:31:35.765Z,9.93
2023-01-07T02:36:47.357Z,9.80
2023-01-07T02:42:18.596Z,9.71
2023-01-07T02:47:23.664Z,9.57
2023-01-07T02:52:26.449Z,9.36
2023-01-07T02:57:46.284Z,9.16
2023-01-07T03:02:48.822Z,8.97
2023-01-07T03:08:13.432Z,8.89
2023-01-07T03:13:21.173Z,8.78
2023-01-07T03:18:30.285Z,8.73
2023-01-07T03:23:39.425Z,8.67
2023-01-07T03:28:42.294Z,8.69
2023-01-07T03:34:07.624Z,8.71
2023-01-07T03:39:11.086Z,8.74
2023-01-07T03:44:12.575Z,8.78
2023-01-07T03:49:14.134Z,8.78
2023-01-07T03:54:16.476Z,8.72
2023-01-07T03:59:18.115Z,8.65
2023-01-07T04:04:19.622Z,8.63
2023-01-07T04:09:22.022Z,8.63
2023-01-07T04:14:23.967Z,8.58
2023-01-07T04:19:25.405Z,8.50
2023-01-07T04:24:26.868Z,8.48
2023-01-07T04:29:28.485Z,8.46
2023-01-07T04:34:30.137Z,8.39
2023-01-07T04:39:31.885Z,8.32
2023-01-07T04:44:33.305Z,8.29
2023-01-07T04:49:34.739Z,8.29
2023-01-07T04:54:36.899Z,8.30
2023-01-07T04:59:38.341Z,8.27
2023-01-07T05:04:40.829Z,8.26
2023-01-07T05:09:42.287Z,8.21
2023-01-07T05:14:43.918Z,8.21
2023-01-07T05:19:46.237Z,8.25
2023-01-07T05:24:48.766Z,8.40
2023-01-07T05:29:51.560Z,8.59
2023-01-07T05:34:53.667Z,8.73
2023-01-07T05:39:56.047Z,8.87
2023-01-07T05:44:57.460Z,8.98
2023-01-07T05:49:58.798Z,9.08
2023-01-07T05:55:00.167Z,9.16
2023-01-07T06:00:01.519Z,9.21
2023-01-07T06:05:03.489Z,9.27
2023-01-07T06:10:05.065Z,9.30
2023-01-07T06:15:09.343Z,9.34
2023-01-07T06:20:11.009Z,9.38
2023-01-07T06:25:12.804Z,9.41
2023-01-07T06:30:14.175Z,9.44
2023-01-07T06:35:15.528Z,9.45
2023-01-07T06:40:16.951Z,9.48
2023-01-07T06:45:18.355Z,9.49
2023-01-07T06:50:19.660Z,9.49
2023-01-07T06:55:20.997Z,9.48
2023-01-07T07:00:22.449Z,9.48
2023-01-07T07:05:23.819Z,9.49
2023-01-07T07:10:25.240Z,9.50
2023-01-07T07:15:26.651Z,9.52
2023-01-07T07:20:27.963Z,9.57
2023-01-07T07:25:29.592Z,9.60
2023-01-07T07:30:45.950Z,9.64
2023-01-07T07:35:49.322Z,9.64
2023-01-07T07:40:50.720Z,9.66
2023-01-07T07:45:52.036Z,9.69
2023-01-07T07:50:53.548Z,9.71
2023-01-07T07:55:54.969Z,9.77
2023-01-07T08:00:56.404Z,9.78
2023-01-07T08:05:57.779Z,9.80
2023-01-07T08:10:59.160Z,9.81
2023-01-07T08:16:00.660Z,9.79
2023-01-07T08:21:02.116Z,9.71
2023-01-07T08:26:03.569Z,9.68
2023-01-07T08:31:06.024Z,9.70
2023-01-07T08:36:18.111Z,9.73
2023-01-07T08:41:23.928Z,9.79
2023-01-07T08:46:25.323Z,9.89
2023-01-07T08:51:26.712Z,9.92
2023-01-07T08:56:28.037Z,9.95
2023-01-07T09:01:30.098Z,10.00
2023-01-07T09:06:31.486Z,10.08
2023-01-07T09:11:32.843Z,10.24
2023-01-07T09:16:34.291Z,10.34
2023-01-07T09:21:35.622Z,10.37
2023-01-07T09:26:36.941Z,10.37
2023-01-07T09:31:38.265Z,10.35
2023-01-07T09:36:39.613Z,10.41
2023-01-07T09:41:59.878Z,10.50
2023-01-07T09:47:01.842Z,10.58
2023-01-07T09:52:08.353Z,10.66
2023-01-07T09:57:14.258Z,10.71
2023-01-07T10:02:21.791Z,10.74
2023-01-07T10:07:34.639Z,10.71
2023-01-07T10:12:54.828Z,10.67
2023-01-07T10:18:02.430Z,10.61
2023-01-07T10:23:14.169Z,10.60
2023-01-07T10:28:20.020Z,10.64
2023-01-07T10:33:26.693Z,10.72
2023-01-07T10:38:30.181Z,10.76
2023-01-07T10:43:40.759Z,10.74
2023-01-07T10:48:51.287Z,10.72
2023-01-07T10:54:03.440Z,10.80
2023-01-07T10:59:04.765Z,11.07
2023-01-07T11:04:13.501Z,11.34
2023-01-07T11:09:17.996Z,11.48
2023-01-07T11:14:20.830Z,11.50
2023-01-07T11:19:23.631Z,11.42
2023-01-07T11:24:24.932Z,11.35
2023-01-07T11:29:30.027Z,11.36
2023-01-07T11:34:34.486Z,11.45
2023-01-07T11:39:36.204Z,11.49
2023-01-07T11:44:37.541Z,11.51
2023-01-07T11:49:43.233Z,11.56
2023-01-07T11:54:49.790Z,11.67
2023-01-07T12:00:05.051Z,11.71
2023-01-07T12:05:16.544Z,11.87
2023-01-07T12:10:30.047Z,12.04
2023-01-07T12:15:33.398Z,12.17
2023-01-07T12:21:02.699Z,12.21
2023-01-07T12:26:04.034Z,12.21
2023-01-07T12:31:16.390Z,12.17
2023-01-07T12:36:28.711Z,12.19
2023-01-07T12:41:36.589Z,12.29
2023-01-07T12:46:40.420Z,12.39
2023-01-07T12:51:56.857Z,12.37
2023-01-07T12:57:00.230Z,12.28
2023-01-07T13:02:13.650Z,12.18
2023-01-07T13:07:33.745Z,12.01
2023-01-07T13:12:48.156Z,11.79
2023-01-07T13:17:50.988Z,11.74
2023-01-07T13:22:53.932Z,11.80
2023-01-07T13:28:10.787Z,11.86
2023-01-07T13:33:38.696Z,11.96
2023-01-07T13:38:55.361Z,12.02
2023-01-07T13:44:15.113Z,11.98
2023-01-07T13:49:23.979Z,11.79
2023-01-07T13:54:44.259Z,11.48
2023-01-07T13:59:49.362Z,11.26
2023-01-07T14:05:05.137Z,11.16
2023-01-07T14:10:17.172Z,11.05
2023-01-07T14:15:33.837Z,10.99
2023-01-07T14:20:47.530Z,10.95
2023-01-07T14:25:48.882Z,10.98
2023-01-07T14:30:51.876Z,10.92
2023-01-07T14:35:53.239Z,10.72
2023-01-07T14:41:03.994Z,10.54
2023-01-07T14:46:06.960Z,10.40
2023-01-07T14:51:28.111Z,10.28
2023-01-07T14:56:51.134Z,10.23
2023-01-07T15:01:53.108Z,10.15
2023-01-07T15:06:59.125Z,10.12
2023-01-07T15:12:21.409Z,10.07
2023-01-07T15:17:23.132Z,10.01
2023-01-07T15:22:24.483Z,9.93
2023-01-07T15:27:29.846Z,9.85
2023-01-07T15:32:34.430Z,9.74
2023-01-07T15:37:35.938Z,9.64
2023-01-07T15:42:44.931Z,9.59
2023-01-07T15:47:46.304Z,9.55
2023-01-07T15:52:51.945Z,9.59
2023-01-07T15:57:56.959Z,9.61
2023-01-07T16:02:58.455Z,9.55
2023-01-07T16:08:00.998Z,9.55
2023-01-07T16:13:06.650Z,9.58
2023-01-07T16:18:07.941Z,9.61
2023-01-07T16:23:40.555Z,9.64
2023-01-07T16:28:42.745Z,9.63
2023-01-07T16:34:18.898Z,9.59
2023-01-07T17:39:01.103Z,8.38
2023-01-07T17:44:03.097Z,8.36
2023-01-07T17:49:56.814Z,8.33
2023-01-07T18:40:15.207Z,8.40
2023-01-07T18:45:22.890Z,8.34
2023-01-07T18:50:26.524Z,8.25
2023-01-07T19:01:30.412Z,7.99
2023-01-07T19:06:32.227Z,7.82
2023-01-07T19:11:33.689Z,7.68
2023-01-07T19:16:37.659Z,7.54
2023-01-07T19:21:41.952Z,7.39
2023-01-07T19:26:43.778Z,7.28
2023-01-07T19:31:45.639Z,7.20
2023-01-07T19:36:47.163Z,7.15
2023-01-07T19:41:49.017Z,7.08
2023-01-07T19:46:50.376Z,7.07
2023-01-07T19:51:52.585Z,7.08
2023-01-07T19:56:54.016Z,7.03
2023-01-07T20:01:55.488Z,6.99
2023-01-07T20:06:56.972Z,6.94
2023-01-07T20:11:58.347Z,6.91
2023-01-07T20:16:59.837Z,6.89
2023-01-07T20:22:01.203Z,6.93
2023-01-07T20:27:02.908Z,6.95
2023-01-07T20:32:07.271Z,6.97
2023-01-07T20:37:08.699Z,6.99
2023-01-07T20:42:10.259Z,7.00
2023-01-07T20:47:11.594Z,7.00
2023-01-07T20:52:12.917Z,7.02
2023-01-07T20:57:14.282Z,7.04
2023-01-07T21:02:16.750Z,7.08
2023-01-07T21:07:18.217Z,7.12
2023-01-07T21:12:19.817Z,7.15
2023-01-07T21:17:21.178Z,7.15
2023-01-07T21:22:22.717Z,7.13
2023-01-07T21:27:24.609Z,7.10
2023-01-07T21:32:25.997Z,7.11
2023-01-07T21:37:29.229Z,7.14
2023-01-07T21:42:30.735Z,7.12
2023-01-07T21:47:32.380Z,7.09
2023-01-07T21:52:34.538Z,7.03
2023-01-07T21:57:36.327Z,6.95
2023-01-07T22:02:37.633Z,6.92
2023-01-07T22:07:39.169Z,6.85
2023-01-07T22:12:40.501Z,6.82
2023-01-07T22:17:41.862Z,6.78
2023-01-07T22:22:43.559Z,6.74
2023-01-07T22:27:45.026Z,6.76
2023-01-07T22:32:46.342Z,6.75
2023-01-07T22:37:48.464Z,6.74
2023-01-07T22:42:54.323Z,6.72
2023-01-07T22:47:55.686Z,6.74
2023-01-07T22:52:57.097Z,6.80
2023-01-07T22:57:59.300Z,6.84
2023-01-07T23:03:00.660Z,6.85
2023-01-07T23:08:02.009Z,6.88
2023-01-07T23:13:03.606Z,6.94
2023-01-07T23:18:05.616Z,6.96
2023-01-07T23:23:06.941Z,6.93
2023-01-07T23:28:08.321Z,6.92
2023-01-07T23:33:10.114Z,6.92
2023-01-07T23:38:11.577Z,6.94
2023-01-07T23:43:12.922Z,6.95
2023-01-07T23:48:14.225Z,6.99
2023-01-07T23:53:15.541Z,7.02
2023-01-07T23:58:16.842Z,7.03
